createdAt,value
2023-05-05T00:02:26.341Z,4.90
2023-05-05T00:05:39.553Z,5.72
2023-05-05T00:08:10.515Z,5.43
2023-05-05T00:10:36.954Z,5.40
2023-05-05T00:13:07.877Z,5.63
2023-05-05T00:15:45.393Z,5.22
2023-05-05T00:18:14.618Z,5.63
2023-05-05T00:20:46.056Z,5.50
2023-05-05T00:23:13.703Z,5.85
2023-05-05T00:25:43.869Z,6.82
2023-05-05T00:28:17.000Z,5.70
2023-05-05T00:30:43.881Z,6.50
2023-05-05T00:33:11.253Z,5.72
2023-05-05T00:35:38.138Z,5.72
2023-05-05T00:38:05.724Z,6.15
2023-05-05T00:40:32.737Z,4.00
2023-05-05T00:43:06.919Z,5.85
2023-05-05T00:45:37.547Z,5.57
2023-05-05T00:48:05.350Z,5.53
2023-05-05T00:50:38.575Z,6.00
2023-05-05T00:53:10.497Z,6.18
2023-05-05T00:58:20.144Z,5.97
2023-05-05T01:00:47.558Z,6.30
2023-05-05T01:03:19.104Z,5.40
2023-05-05T01:06:14.265Z,5.65
2023-05-05T01:09:02.941Z,4.97
2023-05-05T01:11:51.820Z,5.07
2023-05-05T01:14:35.207Z,4.82
2023-05-05T01:17:24.766Z,4.88
2023-05-05T01:20:12.932Z,5.75
2023-05-05T01:22:52.158Z,5.72
2023-05-05T01:26:04.385Z,6.05
2023-05-05T01:28:58.303Z,5.68
2023-05-05T01:31:54.948Z,5.55
2023-05-05T01:34:29.885Z,5.45
2023-05-05T01:39:37.682Z,5.30
2023-05-05T01:42:23.294Z,5.72
2023-05-05T01:44:52.691Z,6.97
2023-05-05T01:47:24.785Z,5.97
2023-05-05T01:55:24.440Z,4.55
2023-05-05T01:57:56.907Z,5.75
2023-05-05T02:00:25.203Z,5.95
2023-05-05T02:08:23.414Z,5.55
2023-05-05T02:11:15.440Z,5.50
2023-05-05T02:13:50.457Z,5.88
2023-05-05T02:16:18.992Z,5.07
2023-05-05T02:18:55.756Z,5.05
2023-05-05T02:21:23.628Z,4.47
2023-05-05T02:23:52.146Z,4.47
2023-05-05T02:26:21.948Z,4.68
2023-05-05T02:28:59.832Z,4.50
2023-05-05T02:31:39.017Z,4.25
2023-05-05T02:34:08.004Z,4.75
2023-05-05T02:36:39.888Z,4.25
2023-05-05T02:39:14.358Z,4.20
2023-05-05T02:41:43.347Z,4.63
2023-05-05T02:44:13.526Z,4.80
2023-05-05T02:46:41.761Z,4.43
2023-05-05T02:49:12.424Z,4.50
2023-05-05T02:51:39.233Z,4.40
2023-05-05T02:54:06.732Z,4.35
2023-05-05T02:56:52.216Z,4.28
2023-05-05T02:59:47.768Z,4.30
2023-05-05T03:02:42.292Z,4.20
2023-05-05T03:05:47.832Z,4.13
2023-05-05T03:08:37.886Z,4.00
2023-05-05T03:11:19.571Z,4.13
2023-05-05T03:13:51.472Z,4.28
2023-05-05T03:16:20.668Z,4.57
2023-05-05T03:18:57.277Z,4.40
2023-05-05T03:21:25.546Z,4.82
2023-05-05T03:24:15.744Z,4.30
2023-05-05T03:26:44.880Z,3.83
2023-05-05T03:29:15.364Z,3.78
2023-05-05T03:31:48.170Z,4.20
2023-05-05T03:34:15.026Z,3.60
2023-05-05T03:36:41.539Z,4.13
2023-05-05T03:39:46.378Z,3.65
2023-05-05T03:42:34.434Z,3.60
2023-05-05T03:45:02.677Z,3.72
2023-05-05T03:47:29.464Z,3.78
2023-05-05T03:49:58.048Z,3.47
2023-05-05T03:52:24.876Z,3.50
2023-05-05T03:54:52.569Z,3.78
2023-05-05T03:57:23.960Z,3.80
2023-05-05T03:59:57.891Z,4.28
2023-05-05T04:02:28.029Z,3.88
2023-05-05T04:04:58.024Z,3.90
2023-05-05T04:07:40.048Z,3.78
2023-05-05T04:13:11.429Z,3.70
2023-05-05T04:15:41.103Z,4.03
2023-05-05T04:18:09.319Z,3.75
2023-05-05T04:20:36.915Z,4.72
2023-05-05T04:23:12.393Z,3.85
2023-05-05T04:25:47.106Z,3.83
2023-05-05T04:28:14.031Z,3.50
2023-05-05T04:30:46.678Z,3.67
2023-05-05T04:33:20.466Z,4.32
2023-05-05T04:35:50.511Z,3.60
2023-05-05T04:38:21.973Z,3.78
2023-05-05T04:40:53.648Z,3.85
2023-05-05T04:43:24.143Z,3.95
2023-05-05T04:46:06.910Z,3.55
2023-05-05T04:49:05.002Z,4.03
2023-05-05T04:51:33.740Z,3.55
2023-05-05T04:54:04.462Z,4.22
2023-05-05T04:56:32.368Z,3.80
2023-05-05T04:59:03.467Z,4.72
2023-05-05T05:01:35.721Z,4.15
2023-05-05T05:04:06.687Z,3.83
2023-05-05T05:06:37.041Z,3.92
2023-05-05T05:09:05.809Z,4.03
2023-05-05T05:14:05.780Z,3.67
2023-05-05T05:16:39.587Z,3.45
2023-05-05T05:19:06.384Z,4.28
2023-05-05T05:21:33.657Z,4.45
2023-05-05T05:24:03.160Z,4.38
2023-05-05T05:26:34.645Z,4.40
2023-05-05T05:29:06.984Z,5.15
2023-05-05T05:31:37.938Z,4.50
2023-05-05T05:34:12.928Z,5.00
2023-05-05T05:36:44.996Z,4.53
2023-05-05T05:39:16.139Z,5.15
2023-05-05T05:41:46.171Z,5.13
2023-05-05T05:44:38.382Z,4.95
2023-05-05T05:47:12.259Z,5.00
2023-05-05T05:49:40.487Z,5.10
2023-05-05T05:52:09.958Z,3.45
2023-05-05T05:54:41.689Z,5.32
2023-05-05T05:57:34.703Z,5.55
2023-05-05T06:00:08.115Z,5.57
2023-05-05T06:02:37.259Z,5.28
2023-05-05T06:07:42.938Z,5.70
2023-05-05T06:10:25.593Z,5.82
2023-05-05T06:12:54.066Z,5.30
2023-05-05T06:15:25.990Z,6.15
2023-05-05T06:18:00.113Z,5.68
2023-05-05T06:20:30.454Z,5.10
2023-05-05T06:23:01.804Z,5.03
2023-05-05T06:25:29.335Z,4.70
2023-05-05T06:27:59.577Z,4.60
2023-05-05T06:30:32.387Z,4.38
2023-05-05T06:32:59.428Z,4.80
2023-05-05T06:35:28.116Z,4.35
2023-05-05T06:40:27.251Z,3.58
2023-05-05T06:42:57.903Z,4.60
2023-05-05T06:45:32.423Z,4.60
2023-05-05T06:48:05.243Z,3.90
2023-05-05T06:50:34.753Z,4.22
2023-05-05T06:53:11.656Z,4.50
2023-05-05T06:55:48.426Z,3.85
2023-05-05T06:58:22.183Z,3.90
2023-05-05T07:00:51.650Z,3.97
2023-05-05T07:03:21.031Z,3.78
2023-05-05T07:05:53.899Z,4.20
2023-05-05T07:08:23.581Z,4.18
2023-05-05T07:10:55.256Z,4.43
2023-05-05T07:16:13.776Z,3.67
2023-05-05T07:18:44.074Z,3.67
2023-05-05T07:21:11.029Z,3.55
2023-05-05T07:24:03.242Z,3.53
2023-05-05T07:26:31.157Z,3.70
2023-05-05T07:28:59.364Z,3.15
2023-05-05T07:31:30.210Z,3.17
2023-05-05T07:33:58.083Z,2.90
2023-05-05T07:36:27.961Z,2.72
2023-05-05T07:38:59.346Z,3.45
2023-05-05T07:41:28.663Z,3.10
2023-05-05T07:43:55.797Z,3.05
2023-05-05T07:46:28.193Z,2.60
2023-05-05T07:48:55.320Z,2.58
2023-05-05T07:51:27.152Z,2.53
2023-05-05T07:53:56.675Z,2.15
2023-05-05T07:56:23.701Z,2.30
2023-05-05T07:58:55.664Z,2.28
2023-05-05T08:01:26.366Z,2.20
2023-05-05T08:03:55.788Z,2.45
2023-05-05T08:06:24.901Z,2.13
2023-05-05T08:08:57.152Z,2.10
2023-05-05T08:11:29.470Z,2.30
2023-05-05T08:13:59.373Z,1.80
2023-05-05T08:16:26.181Z,1.50
2023-05-05T08:19:28.787Z,2.08
2023-05-05T08:21:58.876Z,1.48
2023-05-05T08:24:39.313Z,1.63
2023-05-05T08:32:40.390Z,1.58
2023-05-05T08:35:09.325Z,1.80
2023-05-05T08:37:36.452Z,1.50
2023-05-05T08:40:11.183Z,1.15
2023-05-05T08:42:39.440Z,1.30
2023-05-05T08:45:16.669Z,1.23
2023-05-05T08:47:44.689Z,1.35
2023-05-05T08:50:12.616Z,1.38
2023-05-05T08:52:42.060Z,1.20
2023-05-05T08:55:21.224Z,1.33
2023-05-05T08:57:58.466Z,1.77
2023-05-05T09:00:30.327Z,1.30
2023-05-05T09:03:03.388Z,1.27
2023-05-05T09:05:34.967Z,1.42
2023-05-05T09:08:08.284Z,1.30
2023-05-05T09:10:36.686Z,1.17
2023-05-05T09:13:07.351Z,1.67
2023-05-05T09:15:37.944Z,1.35
2023-05-05T09:18:09.724Z,1.30
2023-05-05T09:20:40.268Z,1.40
2023-05-05T09:23:20.894Z,1.55
2023-05-05T09:26:07.295Z,1.48
2023-05-05T09:28:35.106Z,1.40
2023-05-05T09:31:19.956Z,1.67
2023-05-05T09:33:51.858Z,1.90
2023-05-05T09:36:18.781Z,1.67
2023-05-05T09:39:09.228Z,1.85
2023-05-05T09:41:41.459Z,1.80
2023-05-05T09:44:09.762Z,1.60
2023-05-05T09:47:07.234Z,1.58
2023-05-05T09:49:46.246Z,1.80
2023-05-05T09:52:20.097Z,2.10
2023-05-05T09:54:59.251Z,1.88
2023-05-05T09:57:35.191Z,2.13
2023-05-05T10:00:15.008Z,3.10
2023-05-05T10:02:43.508Z,3.25
2023-05-05T10:07:48.265Z,3.67
2023-05-05T10:10:17.217Z,3.15
2023-05-05T10:12:52.785Z,2.60
2023-05-05T10:15:25.482Z,1.15
2023-05-05T10:18:07.074Z,1.13
2023-05-05T10:20:45.854Z,1.40
2023-05-05T10:23:15.792Z,1.42
2023-05-05T10:25:50.806Z,1.00
2023-05-05T10:28:27.502Z,0.80
2023-05-05T10:31:25.197Z,0.90
2023-05-05T10:48:38.227Z,0.63
2023-05-05T12:05:43.919Z,1.50
2023-05-05T12:21:21.686Z,1.80
2023-05-05T12:24:38.806Z,1.67
2023-05-05T12:27:09.627Z,1.70
2023-05-05T12:29:36.427Z,1.55
2023-05-05T12:32:04.371Z,2.03
2023-05-05T12:34:35.780Z,1.92
2023-05-05T12:37:21.765Z,1.80
2023-05-05T12:39:52.233Z,2.25
2023-05-05T12:46:18.119Z,1.90
2023-05-05T12:48:47.958Z,2.05
2023-05-05T12:51:28.926Z,2.13
2023-05-05T12:54:27.679Z,2.38
2023-05-05T12:57:10.538Z,2.30
2023-05-05T12:59:37.024Z,2.50
2023-05-05T13:33:03.588Z,3.03
2023-05-05T13:35:32.129Z,2.72
2023-05-05T13:38:01.046Z,3.20
2023-05-05T13:40:29.302Z,3.30
2023-05-05T13:42:59.236Z,3.33
2023-05-05T13:49:09.812Z,1.98
2023-05-05T13:51:37.683Z,2.45
2023-05-05T13:57:01.075Z,2.05
2023-05-05T13:59:29.971Z,1.70
2023-05-05T14:40:36.541Z,0.80
2023-05-05T14:43:03.091Z,1.02
2023-05-05T14:45:34.652Z,1.00
2023-05-05T14:48:01.621Z,1.33
2023-05-05T14:50:28.619Z,0.80
2023-05-05T14:52:59.166Z,1.20
2023-05-05T14:55:26.904Z,0.88
2023-05-05T14:57:59.009Z,1.00
2023-05-05T15:00:30.296Z,1.10
2023-05-05T15:03:03.876Z,1.13
2023-05-05T15:05:38.132Z,1.50
2023-05-05T15:08:06.751Z,1.48
2023-05-05T15:10:33.557Z,1.40
2023-05-05T15:13:04.182Z,1.40
2023-05-05T15:15:31.291Z,0.88
2023-05-05T15:17:58.651Z,1.10
2023-05-05T15:20:25.584Z,1.00
2023-05-05T15:23:02.601Z,1.02
2023-05-05T15:25:31.193Z,1.20
2023-05-05T15:28:00.783Z,1.10
2023-05-05T15:30:36.630Z,1.17
2023-05-05T15:44:33.179Z,1.00
2023-05-05T15:47:00.151Z,0.98
2023-05-05T15:49:35.313Z,0.80
2023-05-05T15:52:02.640Z,0.90
2023-05-05T15:54:31.215Z,0.73
2023-05-05T16:12:04.193Z,0.90
2023-05-05T16:14:36.713Z,0.82
2023-05-05T16:17:03.330Z,1.10
2023-05-05T16:23:04.531Z,1.20
2023-05-05T16:25:31.030Z,1.38
2023-05-05T16:30:55.668Z,0.90
2023-05-05T16:33:33.894Z,1.00
2023-05-05T16:36:03.558Z,0.88
2023-05-05T16:38:52.237Z,1.13
2023-05-05T16:41:26.136Z,1.00
2023-05-05T16:43:59.957Z,1.00
2023-05-05T16:46:27.234Z,0.90
2023-05-05T16:48:54.600Z,0.55
2023-05-05T16:51:41.884Z,0.80
2023-05-05T16:54:09.311Z,0.90
2023-05-05T16:56:36.130Z,0.70
2023-05-05T16:59:05.271Z,0.60
2023-05-05T17:01:35.279Z,0.50
2023-05-05T17:04:06.131Z,0.63
2023-05-05T17:06:39.004Z,0.50
2023-05-05T17:09:08.742Z,0.73
2023-05-05T17:21:15.858Z,0.70
2023-05-05T17:23:42.585Z,0.35
2023-05-05T17:26:09.752Z,0.43
2023-05-05T17:28:36.768Z,0.70
2023-05-05T17:31:03.504Z,0.65
2023-05-05T17:33:30.860Z,0.50
2023-05-05T17:36:01.051Z,0.60
2023-05-05T17:38:27.940Z,0.60
2023-05-05T17:41:02.432Z,0.60
2023-05-05T17:43:29.628Z,0.52
2023-05-05T17:46:00.241Z,0.68
2023-05-05T17:48:33.449Z,0.47
2023-05-05T17:51:05.881Z,0.77
2023-05-05T17:53:35.136Z,0.60
2023-05-05T17:56:03.148Z,0.60
2023-05-05T18:04:42.201Z,0.90
2023-05-05T18:07:08.787Z,0.70
2023-05-05T18:09:36.057Z,0.80
2023-05-05T18:12:03.628Z,0.90
2023-05-05T18:14:30.375Z,0.52
2023-05-05T18:16:56.697Z,0.88
2023-05-05T18:19:23.792Z,0.80
2023-05-05T18:21:52.428Z,0.98
2023-05-05T18:24:20.473Z,1.00
2023-05-05T18:26:50.060Z,1.10
2023-05-05T18:29:17.855Z,1.13
2023-05-05T18:31:53.054Z,1.10
2023-05-05T18:34:20.623Z,0.98
2023-05-05T18:36:47.796Z,1.00
2023-05-05T18:39:14.739Z,1.02
2023-05-05T18:41:41.195Z,1.00
2023-05-05T18:44:07.841Z,1.30
2023-05-05T18:46:34.370Z,1.10
2023-05-05T18:49:00.903Z,1.08
2023-05-05T18:51:28.131Z,1.20
2023-05-05T18:53:54.787Z,1.30
2023-05-05T18:56:21.680Z,1.10
2023-05-05T18:58:48.625Z,1.20
2023-05-05T19:01:16.047Z,1.63
2023-05-05T19:03:45.787Z,1.73
2023-05-05T19:06:12.305Z,1.00
2023-05-05T19:08:38.842Z,1.35
2023-05-05T19:11:05.286Z,1.35
2023-05-05T19:13:31.747Z,1.10
2023-05-05T19:15:58.339Z,1.30
2023-05-05T19:18:25.165Z,1.35
2023-05-05T19:20:51.577Z,1.40
2023-05-05T19:23:17.977Z,1.58
2023-05-05T19:25:44.464Z,1.30
2023-05-05T19:28:11.236Z,1.70
2023-05-05T19:30:37.735Z,1.70
2023-05-05T19:33:04.358Z,1.55
2023-05-05T19:35:31.321Z,1.85
2023-05-05T19:37:57.781Z,1.60
2023-05-05T19:40:24.217Z,1.77
2023-05-05T19:42:50.629Z,2.35
2023-05-05T19:45:17.218Z,2.42
2023-05-05T19:47:43.671Z,1.85
2023-05-05T19:50:26.227Z,2.22
2023-05-05T19:52:54.470Z,1.80
2023-05-05T19:55:21.937Z,1.90
2023-05-05T19:57:48.352Z,1.77
2023-05-05T20:00:15.001Z,1.75
2023-05-05T20:02:41.849Z,2.25
2023-05-05T20:05:09.890Z,1.70
2023-05-05T20:07:36.311Z,1.83
2023-05-05T20:10:05.187Z,1.92
2023-05-05T20:14:58.173Z,1.70
2023-05-05T20:17:33.501Z,2.20
2023-05-05T20:20:00.044Z,1.70
2023-05-05T20:22:28.839Z,1.88
2023-05-05T20:27:21.525Z,1.70
2023-05-05T20:29:48.202Z,1.90
2023-05-05T20:32:15.725Z,1.65
2023-05-05T20:34:42.171Z,2.08
2023-05-05T20:37:08.698Z,2.03
2023-05-05T20:39:35.484Z,2.10
2023-05-05T20:42:02.585Z,2.10
2023-05-05T20:44:28.916Z,1.75
2023-05-05T20:46:55.466Z,2.15
2023-05-05T20:49:21.924Z,1.88
2023-05-05T20:51:48.284Z,1.98
2023-05-05T20:54:14.711Z,1.90
2023-05-05T20:56:41.149Z,2.20
2023-05-05T20:59:07.484Z,1.98
2023-05-05T21:01:34.533Z,2.05
2023-05-05T21:04:01.421Z,2.10
2023-05-05T21:06:27.805Z,2.00
2023-05-05T21:08:54.205Z,2.40
2023-05-05T21:11:21.369Z,2.17
2023-05-05T21:13:47.838Z,2.05
2023-05-05T21:16:14.266Z,2.30
2023-05-05T21:18:40.760Z,2.28
2023-05-05T21:21:07.363Z,2.03
2023-05-05T21:23:33.794Z,2.25
2023-05-05T21:26:02.299Z,2.08
2023-05-05T21:28:28.808Z,1.98
2023-05-05T21:31:19.644Z,2.33
2023-05-05T21:33:41.486Z,2.20
2023-05-05T21:36:08.246Z,2.25
2023-05-05T21:38:34.624Z,2.40
2023-05-05T21:41:01.050Z,2.33
2023-05-05T21:43:30.795Z,2.03
2023-05-05T21:46:04.726Z,4.68
2023-05-05T21:48:31.750Z,3.10
2023-05-05T21:50:58.155Z,2.80
2023-05-05T21:53:24.531Z,2.22
2023-05-05T21:55:51.470Z,2.58
2023-05-05T21:58:17.925Z,2.30
2023-05-05T22:00:44.963Z,2.42
2023-05-05T22:03:11.646Z,2.63
2023-05-05T22:05:38.379Z,2.53
2023-05-05T22:08:04.875Z,2.50
2023-05-05T22:10:31.333Z,2.40
2023-05-05T22:12:58.143Z,2.67
2023-05-05T22:15:27.617Z,2.80
2023-05-05T22:17:56.560Z,2.83
2023-05-05T22:20:26.092Z,2.20
2023-05-05T22:22:52.498Z,2.40
2023-05-05T22:25:18.955Z,2.63
2023-05-05T22:27:45.538Z,1.98
2023-05-05T22:30:12.566Z,2.38
2023-05-05T22:32:39.853Z,1.92
2023-05-05T22:35:07.237Z,2.22
2023-05-05T22:37:33.649Z,2.65
2023-05-05T22:39:59.973Z,2.08
2023-05-05T22:42:26.701Z,2.08
2023-05-05T22:44:53.339Z,2.10
2023-05-05T22:47:19.804Z,2.20
2023-05-05T22:49:46.402Z,2.55
2023-05-05T22:52:12.975Z,2.30
2023-05-05T22:54:42.074Z,2.40
2023-05-05T22:57:08.412Z,2.53
2023-05-05T22:59:34.777Z,2.00
2023-05-05T23:02:01.179Z,2.35
2023-05-05T23:04:27.624Z,2.80
2023-05-05T23:06:53.997Z,2.53
2023-05-05T23:09:23.608Z,2.72
2023-05-05T23:11:49.994Z,2.53
2023-05-05T23:14:19.210Z,2.88
2023-05-05T23:16:46.192Z,3.00
2023-05-05T23:19:13.594Z,2.80
2023-05-05T23:21:52.194Z,3.35
2023-05-05T23:24:19.951Z,3.22
2023-05-05T23:26:46.403Z,3.20
2023-05-05T23:29:12.779Z,3.67
2023-05-05T23:31:39.114Z,3.08
2023-05-05T23:34:05.586Z,3.35
2023-05-05T23:36:31.936Z,3.40
2023-05-05T23:38:58.362Z,3.63
2023-05-05T23:41:27.677Z,3.30
2023-05-05T23:43:54.086Z,3.33
2023-05-05T23:46:20.652Z,3.40
2023-05-05T23:48:47.160Z,3.05
2023-05-05T23:51:13.489Z,3.60
2023-05-05T23:53:39.888Z,3.42
2023-05-05T23:56:06.891Z,3.85
2023-05-05T23:58:33.281Z,3.72
